Aérodrome :
LOGIN :

S'inscrire | Disclaimer

   EN    FR    IT 

 










Légende :    VFR   VFR Marginal   IFR   IFR Intensif   IFR Très Intensif
Visi : 
Plafond : 
>= 8 km
>= 3000ft
5 à 8 km
1000 à 3000 ft
1500m à 5 km
500 à 1000 ft
800 à 1500m
200 à 500 ft
< 800m
< 200 ft
Symboles :   Orages  Brouillard  Fortes neiges  Fortes précipitations  Vent > 20 kt
SIGMETs :   Divers  Orages  Givrage  Turbulence  Onde Orograph.  Cendres Volcan.






- Altitude de l'aérodrome : 90 ft
- Code IATA : NTE


LFRS - Nantes

DERNIER METAR :
  • 010730Z AUTO 31004KT 8000 BKN011 OVC026 09/09 Q1024 BECMG BKN030

METARs EXPIRÉS :
  • 010700Z AUTO 32005KT 280V340 9999 BKN013 OVC030 09/09 Q1024 TEMPO 4500 BR BECMG BKN030
  • 010630Z AUTO 32006KT 290V350 5000 BR BKN013 OVC021 09/09 Q1024 BECMG BKN030
  • 010600Z AUTO 30006KT 9999 BKN016 OVC022 09/09 Q1024 TEMPO BKN008
  • 010530Z AUTO 30007KT 280V340 9000 BKN020 OVC052 09/08 Q1024 TEMPO BKN008
  • 010500Z AUTO 30007KT 5000 -RA BR FEW007 SCT028 BKN035 09/08 Q1024 TEMPO BKN008

TAF AMD TAF LFRS
Valide du 01 à 06h jusqu'au 02 à 12h UTC


010644Z 0106/0212 30010KT 9999 BKN030
TEMPO 0106/0108 4500 BR BKN008
BECMG 0108/0110 01008KT
ATIS : +33 2 40 05 12 74



MET'MAP, la Météo Aéronautique d'un coup d'oeil ! - Copyright ORBIFLY Décembre 2007 - Disclaimer

ORBIFLY MET'MAP TEAM :

Programmation & Développement : Alexandra Zaïnal
Sur une idée originale de : Baudouin d'Aumeries
Assistance à la programmation : Marc-Olivier Méhu
Soutien technique & logistique : Manuel Goepfert

Contact : metmap@orbifly.com




SOURCES & CREDITS :

   NOAA